createdAt,value
2023-08-10T00:00:10.398Z,1018.02
2023-08-10T00:02:23.977Z,1018.05
2023-08-10T00:04:37.537Z,1018.01
2023-08-10T00:06:51.136Z,1018.04
2023-08-10T00:09:03.211Z,1018.11
2023-08-10T00:11:16.788Z,1018.18
2023-08-10T00:13:28.871Z,1018.20
2023-08-10T00:15:42.442Z,1018.20
2023-08-10T00:17:54.560Z,1018.12
2023-08-10T00:20:06.631Z,1018.16
2023-08-10T00:22:18.691Z,1018.17
2023-08-10T00:24:30.801Z,1018.18
2023-08-10T00:26:42.853Z,1018.17
2023-08-10T00:28:56.436Z,1018.18
2023-08-10T00:31:08.562Z,1018.17
2023-08-10T00:33:32.157Z,1018.15
2023-08-10T00:34:22.560Z,1018.12
2023-08-10T00:36:33.654Z,1018.18
2023-08-10T00:38:45.728Z,1018.19
2023-08-10T00:40:57.840Z,1018.18
2023-08-10T00:43:09.872Z,1018.18
2023-08-10T00:45:25.450Z,1018.21
2023-08-10T00:47:37.582Z,1018.24
2023-08-10T00:49:51.110Z,1018.25
2023-08-10T00:52:03.527Z,1018.24
2023-08-10T00:54:16.573Z,1018.25
2023-08-10T00:56:28.652Z,1018.29
2023-08-10T00:58:40.732Z,1018.23
2023-08-10T01:00:54.304Z,1018.30
2023-08-10T01:03:07.477Z,1018.30
2023-08-10T01:05:19.516Z,1018.37
2023-08-10T01:07:31.542Z,1018.35
2023-08-10T01:09:45.119Z,1018.37
2023-08-10T01:11:58.709Z,1018.35
2023-08-10T01:14:12.310Z,1018.42
2023-08-10T01:16:25.959Z,1018.42
2023-08-10T01:18:37.966Z,1018.42
2023-08-10T01:20:50.056Z,1018.40
2023-08-10T01:23:02.139Z,1018.39
2023-08-10T01:25:15.757Z,1018.26
2023-08-10T01:27:29.597Z,1018.31
2023-08-10T01:29:43.164Z,1018.34
2023-08-10T01:31:56.779Z,1018.30
2023-08-10T01:34:10.320Z,1018.34
2023-08-10T01:36:22.427Z,1018.36
2023-08-10T01:38:35.497Z,1018.39
2023-08-10T01:40:49.131Z,1018.39
2023-08-10T01:43:04.667Z,1018.43
2023-08-10T01:45:18.247Z,1018.44
2023-08-10T01:47:33.884Z,1018.46
2023-08-10T01:49:49.421Z,1018.46
2023-08-10T01:52:01.564Z,1018.47
2023-08-10T01:54:15.076Z,1018.55
2023-08-10T01:56:30.693Z,1018.53
2023-08-10T01:58:44.324Z,1018.50
2023-08-10T02:00:57.858Z,1018.54
2023-08-10T02:03:10.015Z,1018.51
2023-08-10T02:05:25.522Z,1018.46
2023-08-10T02:07:41.102Z,1018.42
2023-08-10T02:09:53.232Z,1018.47
2023-08-10T02:12:05.537Z,1018.48
2023-08-10T02:14:20.852Z,1018.50
2023-08-10T02:16:34.745Z,1018.48
2023-08-10T02:18:50.334Z,1018.48
2023-08-10T02:21:08.450Z,1018.54
2023-08-10T02:23:20.799Z,1018.57
2023-08-10T02:25:36.494Z,1018.60
2023-08-10T02:27:49.970Z,1018.56
2023-08-10T02:30:02.053Z,1018.62
2023-08-10T02:32:15.642Z,1018.65
2023-08-10T02:34:27.718Z,1018.66
2023-08-10T02:36:41.287Z,1018.66
2023-08-10T02:38:54.951Z,1018.62
2023-08-10T02:41:06.961Z,1018.61
2023-08-10T02:43:22.587Z,1018.61
2023-08-10T02:45:36.147Z,1018.56
2023-08-10T02:47:49.797Z,1018.61
2023-08-10T02:50:01.820Z,1018.57
2023-08-10T02:52:15.386Z,1018.58
2023-08-10T02:54:27.520Z,1018.60
2023-08-10T02:56:39.587Z,1018.68
2023-08-10T02:58:53.147Z,1018.68
2023-08-10T03:01:05.321Z,1018.69
2023-08-10T03:03:19.789Z,1018.69
2023-08-10T03:05:32.896Z,1018.66
2023-08-10T03:07:48.467Z,1018.62
2023-08-10T03:10:09.386Z,1018.61
2023-08-10T03:12:18.627Z,1018.60
2023-08-10T03:14:32.227Z,1018.62
2023-08-10T03:16:44.390Z,1018.59
2023-08-10T03:18:57.893Z,1018.59
2023-08-10T03:21:09.999Z,1018.59
2023-08-10T03:22:09.999Z,1018.60
2023-08-10T03:24:22.046Z,1018.69
2023-08-10T03:26:34.123Z,1018.71
2023-08-10T03:28:46.244Z,1018.72
2023-08-10T03:30:59.355Z,1018.70
2023-08-10T03:33:11.449Z,1018.74
2023-08-10T03:35:25.031Z,1018.80
2023-08-10T03:37:38.934Z,1018.79
2023-08-10T03:39:52.491Z,1018.86
2023-08-10T03:42:04.764Z,1018.86
2023-08-10T03:44:16.694Z,1018.87
2023-08-10T03:46:28.819Z,1018.89
2023-08-10T03:48:40.955Z,1018.96
2023-08-10T03:50:56.419Z,1019.01
2023-08-10T03:53:10.028Z,1018.94
2023-08-10T03:55:23.630Z,1018.94
2023-08-10T03:57:37.176Z,1018.99
2023-08-10T03:59:49.255Z,1019.03
2023-08-10T04:02:03.165Z,1018.93
2023-08-10T04:04:16.452Z,1018.91
2023-08-10T04:06:32.053Z,1018.88
2023-08-10T04:08:45.634Z,1018.97
2023-08-10T04:11:03.756Z,1018.99
2023-08-10T04:13:18.314Z,1019.07
2023-08-10T04:15:34.198Z,1019.07
2023-08-10T04:17:47.848Z,1019.04
2023-08-10T04:20:01.377Z,1019.08
2023-08-10T04:22:16.954Z,1019.10
2023-08-10T04:24:32.538Z,1019.06
2023-08-10T04:26:46.111Z,1019.02
2023-08-10T04:29:01.744Z,1019.02
2023-08-10T04:31:17.349Z,1018.97
2023-08-10T04:33:30.865Z,1019.10
2023-08-10T04:35:42.954Z,1019.05
2023-08-10T04:37:55.023Z,1019.11
2023-08-10T04:40:14.127Z,1019.16
2023-08-10T04:42:26.704Z,1019.08
2023-08-10T04:44:44.779Z,1019.08
2023-08-10T04:46:56.861Z,1019.07
2023-08-10T04:49:12.427Z,1019.09
2023-08-10T04:51:30.530Z,1019.06
2023-08-10T04:53:46.076Z,1019.09
2023-08-10T04:56:01.661Z,1019.14
2023-08-10T04:58:12.748Z,1019.15
2023-08-10T05:00:26.324Z,1019.23
2023-08-10T05:02:41.972Z,1019.18
2023-08-10T05:04:57.495Z,1019.16
2023-08-10T05:07:09.601Z,1019.19
2023-08-10T05:09:23.155Z,1019.20
2023-08-10T05:11:36.758Z,1019.27
2023-08-10T05:13:52.346Z,1019.30
2023-08-10T05:16:04.514Z,1019.34
2023-08-10T05:18:16.499Z,1019.42
2023-08-10T05:20:28.662Z,1019.45
2023-08-10T05:22:42.158Z,1019.50
2023-08-10T05:24:55.776Z,1019.51
2023-08-10T05:27:09.345Z,1019.47
2023-08-10T05:29:22.993Z,1019.43
2023-08-10T05:31:38.539Z,1019.44
2023-08-10T05:33:52.105Z,1019.41
2023-08-10T05:36:05.723Z,1019.41
2023-08-10T05:38:23.538Z,1019.46
2023-08-10T05:40:41.628Z,1019.44
2023-08-10T05:42:56.193Z,1019.50
2023-08-10T05:45:11.787Z,1019.49
2023-08-10T05:47:23.902Z,1019.54
2023-08-10T05:49:35.977Z,1019.54
2023-08-10T05:51:51.588Z,1019.49
2023-08-10T05:54:03.683Z,1019.48
2023-08-10T05:56:19.228Z,1019.47
2023-08-10T05:58:32.914Z,1019.49
2023-08-10T06:00:44.932Z,1019.50
2023-08-10T06:02:57.079Z,1019.55
2023-08-10T06:05:12.571Z,1019.52
2023-08-10T06:07:24.651Z,1019.54
2023-08-10T06:09:36.790Z,1019.53
2023-08-10T06:11:50.322Z,1019.53
2023-08-10T06:14:04.890Z,1019.55
2023-08-10T06:16:18.499Z,1019.61
2023-08-10T06:18:34.062Z,1019.60
2023-08-10T06:20:52.152Z,1019.65
2023-08-10T06:23:05.707Z,1019.69
2023-08-10T06:25:17.800Z,1019.68
2023-08-10T06:27:30.858Z,1019.74
2023-08-10T06:38:31.254Z,1019.74
2023-08-10T06:40:43.799Z,1019.75
2023-08-10T06:42:58.418Z,1019.78
2023-08-10T06:45:10.505Z,1019.77
2023-08-10T06:47:22.584Z,1019.79
2023-08-10T06:49:34.691Z,1019.81
2023-08-10T06:51:49.231Z,1019.80
2023-08-10T06:54:04.817Z,1019.83
2023-08-10T06:56:16.914Z,1019.79
2023-08-10T07:00:41.149Z,1019.77
2023-08-10T07:02:59.178Z,1019.78
2023-08-10T07:05:11.236Z,1019.78
2023-08-10T07:07:31.821Z,1019.82
2023-08-10T07:09:45.712Z,1019.87
2023-08-10T07:12:00.327Z,1019.87
2023-08-10T07:14:15.878Z,1019.84
2023-08-10T07:16:29.476Z,1019.82
2023-08-10T07:18:41.538Z,1019.84
2023-08-10T07:20:53.697Z,1019.82
2023-08-10T07:23:05.727Z,1019.80
2023-08-10T07:25:20.404Z,1019.84
2023-08-10T07:27:34.146Z,1019.84
2023-08-10T07:29:54.741Z,1019.78
2023-08-10T07:32:08.536Z,1019.78
2023-08-10T07:34:20.428Z,1019.81
2023-08-10T07:36:33.988Z,1019.87
2023-08-10T07:38:52.096Z,1019.84
2023-08-10T07:41:04.168Z,1019.85
2023-08-10T07:43:16.252Z,1019.85
2023-08-10T07:45:29.840Z,1019.91
2023-08-10T07:47:45.538Z,1019.92
2023-08-10T07:50:03.476Z,1019.99
2023-08-10T07:52:17.066Z,1019.99
2023-08-10T07:54:30.725Z,1019.99
2023-08-10T07:56:42.772Z,1020.01
2023-08-10T07:58:54.827Z,1020.01
2023-08-10T08:01:08.442Z,1020.04
2023-08-10T08:03:24.072Z,1020.08
2023-08-10T08:05:42.128Z,1020.04
2023-08-10T08:07:55.719Z,1020.01
2023-08-10T08:10:07.836Z,1019.93
2023-08-10T08:12:19.879Z,1019.96
2023-08-10T08:14:40.510Z,1019.98
2023-08-10T08:16:57.042Z,1020.01
2023-08-10T08:19:09.119Z,1020.03
2023-08-10T08:21:27.192Z,1019.96
2023-08-10T08:23:39.282Z,1019.99
2023-08-10T08:25:51.364Z,1019.96
2023-08-10T08:28:05.958Z,1019.94
2023-08-10T08:30:18.148Z,1019.96
2023-08-10T08:32:49.408Z,1019.98
2023-08-10T08:34:42.182Z,1019.94
2023-08-10T08:36:56.773Z,1019.95
2023-08-10T08:39:09.875Z,1019.86
2023-08-10T08:41:21.985Z,1019.87
2023-08-10T08:43:37.538Z,1019.86
2023-08-10T08:45:49.648Z,1019.84
2023-08-10T08:48:02.753Z,1019.90
2023-08-10T08:50:16.301Z,1019.89
2023-08-10T08:52:28.438Z,1019.92
2023-08-10T08:54:40.499Z,1019.88
2023-08-10T08:56:54.106Z,1019.86
2023-08-10T08:59:07.173Z,1019.90
2023-08-10T09:01:25.298Z,1019.93
2023-08-10T09:03:43.425Z,1019.88
2023-08-10T09:06:01.429Z,1019.92
2023-08-10T09:08:15.027Z,1019.94
2023-08-10T09:10:33.125Z,1019.91
2023-08-10T09:16:52.725Z,1019.77
2023-08-10T09:19:06.255Z,1019.80
2023-08-10T09:21:18.418Z,1019.77
2023-08-10T09:30:15.393Z,1019.80
2023-08-10T09:32:28.457Z,1019.83
2023-08-10T09:34:42.032Z,1019.84
2023-08-10T09:36:55.628Z,1019.86
2023-08-10T09:39:09.222Z,1019.81
2023-08-10T09:42:25.407Z,1019.86
2023-08-10T09:44:40.569Z,1019.82
2023-08-10T09:46:56.141Z,1019.86
2023-08-10T09:50:01.660Z,1019.87
2023-08-10T09:52:14.809Z,1019.91
2023-08-10T09:55:15.689Z,1019.85
2023-08-10T09:57:56.999Z,1019.85
2023-08-10T10:01:42.337Z,1019.77
2023-08-10T10:03:57.622Z,1019.82
2023-08-10T10:15:05.957Z,1019.91
2023-08-10T10:17:58.618Z,1019.93
2023-08-10T10:20:10.701Z,1019.89
2023-08-10T10:22:56.710Z,1019.90
2023-08-10T10:25:37.410Z,1019.94
2023-08-10T10:27:48.343Z,1019.88
2023-08-10T10:33:01.691Z,1019.82
2023-08-10T10:35:15.848Z,1019.82
2023-08-10T10:37:28.885Z,1019.84
2023-08-10T10:39:41.015Z,1019.81
2023-08-10T10:41:54.676Z,1019.79
2023-08-10T10:44:06.697Z,1019.79
2023-08-10T10:46:18.815Z,1019.69
2023-08-10T10:48:53.315Z,1019.69
2023-08-10T10:51:07.546Z,1019.61
2023-08-10T10:53:39.965Z,1019.64
2023-08-10T10:55:54.066Z,1019.54
2023-08-10T11:01:47.975Z,1019.43
2023-08-10T11:07:54.853Z,1019.47
2023-08-10T11:10:47.930Z,1019.42
2023-08-10T11:13:07.985Z,1019.42
2023-08-10T11:15:21.549Z,1019.46
2023-08-10T11:17:48.002Z,1019.40
2023-08-10T11:18:36.189Z,1019.41
2023-08-10T11:23:00.556Z,1019.43
2023-08-10T11:26:00.001Z,1019.44
2023-08-10T11:31:25.853Z,1019.41
2023-08-10T11:33:41.384Z,1019.43
2023-08-10T11:35:56.962Z,1019.32
2023-08-10T11:39:14.491Z,1019.34
2023-08-10T11:42:45.183Z,1019.32
2023-08-10T11:48:04.782Z,1019.25
2023-08-10T11:50:18.577Z,1019.23
2023-08-10T11:52:39.198Z,1019.26
2023-08-10T11:54:51.288Z,1019.23
2023-08-10T11:58:30.781Z,1019.20
2023-08-10T12:00:43.963Z,1019.14
2023-08-10T12:02:58.049Z,1019.20
2023-08-10T12:05:14.080Z,1019.19
2023-08-10T12:07:30.405Z,1019.18
2023-08-10T12:09:43.228Z,1019.16
2023-08-10T12:12:28.395Z,1019.24
2023-08-10T12:15:57.937Z,1019.06
2023-08-10T12:18:16.072Z,1019.04
2023-08-10T12:20:29.543Z,1018.98
2023-08-10T12:27:02.854Z,1018.98
2023-08-10T12:29:18.272Z,1018.97
2023-08-10T12:32:34.584Z,1018.95
2023-08-10T12:34:46.661Z,1018.91
2023-08-10T12:37:00.032Z,1018.98
2023-08-10T12:39:13.691Z,1018.96
2023-08-10T12:41:25.690Z,1019.03
2023-08-10T12:43:37.799Z,1019.03
2023-08-10T12:45:49.862Z,1019.03
2023-08-10T12:48:02.053Z,1018.96
2023-08-10T12:50:14.020Z,1018.88
2023-08-10T12:52:26.092Z,1018.91
2023-08-10T12:54:39.205Z,1018.93
2023-08-10T12:56:52.744Z,1018.95
2023-08-10T12:59:07.208Z,1018.92
2023-08-10T13:01:18.438Z,1018.93
2023-08-10T13:03:30.485Z,1018.92
2023-08-10T13:05:42.722Z,1018.93
2023-08-10T13:07:54.645Z,1018.93
2023-08-10T13:10:06.723Z,1018.93
2023-08-10T13:12:18.796Z,1018.89
2023-08-10T13:14:34.410Z,1018.85
2023-08-10T13:16:48.061Z,1018.86
2023-08-10T13:19:00.067Z,1018.85
2023-08-10T13:21:15.650Z,1018.80
2023-08-10T13:23:27.704Z,1018.89
2023-08-10T13:25:39.881Z,1018.85
2023-08-10T13:27:51.879Z,1018.85
2023-08-10T13:30:03.922Z,1018.83
2023-08-10T13:32:17.012Z,1018.83
2023-08-10T13:34:29.114Z,1018.85
2023-08-10T13:36:41.167Z,1018.79
2023-08-10T13:38:53.279Z,1018.77
2023-08-10T13:41:05.335Z,1018.77
2023-08-10T13:43:18.440Z,1018.86
2023-08-10T13:45:30.533Z,1018.84
2023-08-10T13:47:44.161Z,1018.82
2023-08-10T13:49:57.725Z,1018.81
2023-08-10T13:52:11.283Z,1018.79
2023-08-10T13:54:24.368Z,1018.79
2023-08-10T13:56:37.440Z,1018.82
2023-08-10T13:58:51.044Z,1018.82
2023-08-10T14:01:04.140Z,1018.83
2023-08-10T14:03:16.296Z,1018.82
2023-08-10T14:05:28.257Z,1018.82
2023-08-10T14:07:40.329Z,1018.79
2023-08-10T14:09:52.399Z,1018.77
2023-08-10T14:12:08.262Z,1018.82
2023-08-10T14:14:21.598Z,1018.83
2023-08-10T14:16:35.248Z,1018.86
2023-08-10T14:18:47.216Z,1018.84
2023-08-10T14:21:00.305Z,1018.86
2023-08-10T14:23:12.450Z,1018.89
2023-08-10T14:25:24.449Z,1018.88
2023-08-10T14:27:38.031Z,1018.86
2023-08-10T14:29:53.635Z,1018.89
2023-08-10T14:32:05.953Z,1018.87
2023-08-10T14:34:18.843Z,1018.93
2023-08-10T14:36:32.481Z,1018.89
2023-08-10T14:38:44.567Z,1018.84
2023-08-10T14:40:58.137Z,1018.87
2023-08-10T14:43:10.220Z,1018.90
2023-08-10T14:45:22.327Z,1018.92
2023-08-10T14:47:36.153Z,1018.92
2023-08-10T14:49:47.961Z,1018.84
2023-08-10T14:52:01.044Z,1018.90
2023-08-10T14:54:16.617Z,1018.95
2023-08-10T14:56:29.711Z,1018.94
2023-08-10T14:58:42.753Z,1018.89
2023-08-10T15:00:56.797Z,1018.84
2023-08-10T15:03:09.848Z,1018.88
2023-08-10T15:05:23.445Z,1018.88
2023-08-10T15:07:36.535Z,1018.85
2023-08-10T15:10:49.760Z,1018.93
2023-08-10T15:13:03.385Z,1018.91
2023-08-10T15:15:15.432Z,1018.89
2023-08-10T15:17:27.615Z,1018.86
2023-08-10T15:19:41.087Z,1018.91
2023-08-10T15:21:53.175Z,1018.87
2023-08-10T15:24:06.299Z,1018.92
2023-08-10T15:26:18.336Z,1018.93
2023-08-10T15:28:31.915Z,1018.97
2023-08-10T15:30:45.059Z,1018.96
2023-08-10T15:33:00.663Z,1018.93
2023-08-10T15:35:12.700Z,1018.89
2023-08-10T15:37:25.735Z,1018.92
2023-08-10T15:39:39.414Z,1018.95
2023-08-10T15:41:51.430Z,1018.95
2023-08-10T15:44:03.478Z,1018.97
2023-08-10T15:46:21.914Z,1018.94
2023-08-10T15:48:34.951Z,1018.94
2023-08-10T15:50:48.013Z,1018.93
2023-08-10T15:53:00.094Z,1018.90
2023-08-10T15:55:12.180Z,1018.84
2023-08-10T15:57:27.777Z,1018.89
2023-08-10T15:59:39.850Z,1018.89
2023-08-10T16:01:52.009Z,1018.93
2023-08-10T16:04:04.105Z,1018.81
2023-08-10T16:06:16.108Z,1018.80
2023-08-10T16:08:28.195Z,1018.84
2023-08-10T16:10:41.792Z,1018.75
2023-08-10T16:13:55.918Z,1018.82
2023-08-10T16:16:09.587Z,1018.85
2023-08-10T16:18:23.720Z,1018.84
2023-08-10T16:21:36.325Z,1018.82
2023-08-10T16:23:48.400Z,1018.80
2023-08-10T16:26:01.475Z,1018.84
2023-08-10T16:28:15.206Z,1018.80
2023-08-10T16:30:28.160Z,1018.89
2023-08-10T16:32:40.265Z,1018.85
2023-08-10T16:34:52.287Z,1018.88
2023-08-10T16:37:04.375Z,1018.85
2023-08-10T16:42:32.605Z,1018.89
2023-08-10T16:44:46.163Z,1018.85
2023-08-10T16:46:59.554Z,1018.83
2023-08-10T16:49:11.615Z,1018.81
2023-08-10T16:51:23.997Z,1018.80
2023-08-10T16:53:37.089Z,1018.79
2023-08-10T16:55:56.419Z,1018.74
2023-08-10T16:58:06.804Z,1018.80
2023-08-10T17:00:18.896Z,1018.82
2023-08-10T17:03:08.227Z,1018.85
2023-08-10T17:05:21.831Z,1018.80
2023-08-10T17:07:33.955Z,1018.83
2023-08-10T17:09:46.035Z,1018.84
2023-08-10T17:14:36.584Z,1018.90
2023-08-10T17:18:58.745Z,1018.92
2023-08-10T17:22:28.251Z,1018.92
2023-08-10T17:24:40.626Z,1018.96
2023-08-10T17:29:14.105Z,1018.99
2023-08-10T17:33:01.331Z,1018.97
2023-08-10T17:35:15.866Z,1019.01
2023-08-10T17:39:15.410Z,1019.01
2023-08-10T17:41:33.569Z,1019.05
2023-08-10T17:43:45.062Z,1019.02
2023-08-10T17:45:57.166Z,1019.05
2023-08-10T17:52:06.853Z,1019.08
2023-08-10T17:54:18.792Z,1019.08
2023-08-10T17:57:58.305Z,1019.11
2023-08-10T18:00:10.350Z,1019.11
2023-08-10T18:02:22.481Z,1019.15
2023-08-10T18:04:38.622Z,1019.14
2023-08-10T18:11:43.864Z,1019.24
2023-08-10T18:17:14.435Z,1019.25
2023-08-10T18:19:26.590Z,1019.25
2023-08-10T18:21:40.664Z,1019.25
2023-08-10T18:23:53.751Z,1019.26
2023-08-10T18:30:45.950Z,1019.30
2023-08-10T18:32:58.027Z,1019.32
2023-08-10T18:35:11.267Z,1019.33
2023-08-10T18:37:23.356Z,1019.31
2023-08-10T18:39:35.410Z,1019.33
2023-08-10T18:41:47.524Z,1019.36
2023-08-10T18:43:59.597Z,1019.38
2023-08-10T18:46:11.682Z,1019.45
2023-08-10T18:48:23.843Z,1019.49
2023-08-10T18:50:35.823Z,1019.46
2023-08-10T18:52:48.915Z,1019.45
2023-08-10T18:55:00.974Z,1019.46
2023-08-10T18:57:13.049Z,1019.48
2023-08-10T18:59:25.144Z,1019.52
2023-08-10T19:02:54.678Z,1019.52
2023-08-10T19:05:06.714Z,1019.51
2023-08-10T19:07:18.869Z,1019.50
2023-08-10T19:10:48.403Z,1019.55
2023-08-10T19:13:00.406Z,1019.54
2023-08-10T19:15:13.469Z,1019.58
2023-08-10T19:17:26.536Z,1019.60
2023-08-10T19:19:38.644Z,1019.63
2023-08-10T19:21:50.729Z,1019.63
2023-08-10T19:24:02.793Z,1019.61
2023-08-10T19:26:14.886Z,1019.65
2023-08-10T19:28:26.978Z,1019.63
2023-08-10T19:30:39.126Z,1019.65
2023-08-10T19:32:51.221Z,1019.73
2023-08-10T19:35:03.267Z,1019.72
2023-08-10T19:37:15.334Z,1019.73
2023-08-10T19:39:28.925Z,1019.72
2023-08-10T19:41:39.555Z,1019.70
2023-08-10T19:43:52.668Z,1019.74
2023-08-10T19:46:05.748Z,1019.71
2023-08-10T19:48:17.864Z,1019.70
2023-08-10T19:50:29.940Z,1019.72
2023-08-10T19:52:42.013Z,1019.77
2023-08-10T19:54:54.083Z,1019.79
2023-08-10T19:57:07.156Z,1019.79
2023-08-10T19:59:19.224Z,1019.81
2023-08-10T20:01:31.406Z,1019.83
2023-08-10T20:03:43.420Z,1019.84
2023-08-10T20:05:55.492Z,1019.86
2023-08-10T20:08:07.578Z,1019.86
2023-08-10T20:10:23.714Z,1019.89
2023-08-10T20:12:34.209Z,1019.89
2023-08-10T20:14:49.854Z,1019.94
2023-08-10T20:17:05.429Z,1019.97
2023-08-10T20:19:17.970Z,1019.99
2023-08-10T20:21:30.580Z,1020.00
2023-08-10T20:23:44.103Z,1019.98
2023-08-10T20:25:57.179Z,1020.00
2023-08-10T20:28:40.048Z,1019.97
2023-08-10T20:30:52.072Z,1020.01
2023-08-10T20:33:05.745Z,1020.00
2023-08-10T20:35:54.487Z,1020.00
2023-08-10T20:39:24.007Z,1020.05
2023-08-10T20:41:36.088Z,1020.00
2023-08-10T20:43:48.150Z,1020.01
2023-08-10T20:46:00.262Z,1020.07
2023-08-10T20:48:13.291Z,1020.05
2023-08-10T20:50:25.383Z,1020.08
2023-08-10T20:52:38.436Z,1020.09
2023-08-10T20:54:50.510Z,1020.10
2023-08-10T20:57:03.254Z,1020.08
2023-08-10T20:59:14.686Z,1020.04
2023-08-10T21:02:17.746Z,1020.05
2023-08-10T21:04:29.781Z,1020.08
2023-08-10T21:06:42.846Z,1020.11
2023-08-10T21:08:56.827Z,1020.12
2023-08-10T21:12:26.332Z,1020.13
2023-08-10T21:14:38.394Z,1020.07
2023-08-10T21:16:51.471Z,1020.15
2023-08-10T21:19:15.644Z,1020.16
2023-08-10T21:21:30.056Z,1020.12
2023-08-10T21:23:43.637Z,1020.14
2023-08-10T21:27:29.033Z,1020.12
2023-08-10T21:29:48.237Z,1020.14
2023-08-10T21:35:34.449Z,1020.15
2023-08-10T21:37:48.009Z,1020.15
2023-08-10T21:40:00.168Z,1020.17
2023-08-10T21:42:27.911Z,1020.22
2023-08-10T21:44:40.008Z,1020.21
2023-08-10T21:48:09.488Z,1020.20
2023-08-10T21:53:07.501Z,1020.16
2023-08-10T21:56:33.819Z,1020.18
2023-08-10T21:59:02.021Z,1020.10
2023-08-10T22:01:30.758Z,1020.14
2023-08-10T22:03:43.830Z,1020.15
2023-08-10T22:10:16.940Z,1020.16
2023-08-10T22:18:06.030Z,1020.17
2023-08-10T22:20:20.579Z,1020.15
2023-08-10T22:23:01.779Z,1020.14
2023-08-10T22:23:49.713Z,1020.15
2023-08-10T22:26:00.787Z,1020.13
2023-08-10T22:28:15.181Z,1020.17
2023-08-10T22:30:26.444Z,1020.19
2023-08-10T22:32:39.548Z,1020.25
2023-08-10T22:34:52.635Z,1020.27
2023-08-10T22:37:04.686Z,1020.22
2023-08-10T22:39:17.742Z,1020.24
2023-08-10T22:41:33.347Z,1020.25
2023-08-10T22:43:45.415Z,1020.30
2023-08-10T22:45:58.526Z,1020.33
2023-08-10T22:48:12.065Z,1020.29
2023-08-10T22:50:24.166Z,1020.32
2023-08-10T22:52:36.268Z,1020.34
2023-08-10T22:54:49.317Z,1020.34
2023-08-10T22:57:02.414Z,1020.36
2023-08-10T22:59:19.114Z,1020.37
2023-08-10T23:01:55.937Z,1020.42
2023-08-10T23:05:25.475Z,1020.39
2023-08-10T23:07:37.493Z,1020.37
2023-08-10T23:09:50.563Z,1020.39
2023-08-10T23:12:05.544Z,1020.36
2023-08-10T23:17:06.772Z,1020.32
2023-08-10T23:19:19.804Z,1020.33
2023-08-10T23:21:32.910Z,1020.31
2023-08-10T23:25:12.732Z,1020.33
2023-08-10T23:27:24.489Z,1020.31
2023-08-10T23:29:38.151Z,1020.29
2023-08-10T23:31:51.258Z,1020.33
2023-08-10T23:35:46.878Z,1020.33
2023-08-10T23:38:08.944Z,1020.29
2023-08-10T23:40:38.085Z,1020.30
2023-08-10T23:42:51.160Z,1020.26
2023-08-10T23:46:30.649Z,1020.28
2023-08-10T23:48:43.711Z,1020.30
2023-08-10T23:51:13.821Z,1020.31
2023-08-10T23:53:25.842Z,1020.32
2023-08-10T23:56:55.362Z,1020.32
2023-08-10T23:59:10.541Z,1020.30
